sensor_id;sensor_type;location;lat;lon;timestamp;pressure;altitude;pressure_sealevel;temperature;humidity
28606;BME280;46498;49.968;7.754;2022-08-27T00:03:03;97006.00;;;18.20;94.41
28606;BME280;46498;49.968;7.754;2022-08-27T00:08:05;97004.00;;;18.18;94.40
28606;BME280;46498;49.968;7.754;2022-08-27T00:13:07;97011.00;;;18.21;94.10
28606;BME280;46498;49.968;7.754;2022-08-27T00:18:08;97022.00;;;18.23;94.04
28606;BME280;46498;49.968;7.754;2022-08-27T00:23:10;97019.00;;;18.24;93.93
28606;BME280;46498;49.968;7.754;2022-08-27T00:28:11;97022.00;;;18.26;93.80
28606;BME280;46498;49.968;7.754;2022-08-27T00:33:12;97018.00;;;18.32;93.38
28606;BME280;46498;49.968;7.754;2022-08-27T00:38:14;97015.00;;;18.24;93.99
28606;BME280;46498;49.968;7.754;2022-08-27T00:43:24;97017.00;;;18.30;93.35
28606;BME280;46498;49.968;7.754;2022-08-27T00:48:27;97006.00;;;18.21;94.29
28606;BME280;46498;49.968;7.754;2022-08-27T00:53:32;96999.00;;;18.15;94.96
28606;BME280;46498;49.968;7.754;2022-08-27T00:58:44;96989.00;;;18.12;95.26
28606;BME280;46498;49.968;7.754;2022-08-27T01:03:48;96994.00;;;18.19;95.28
28606;BME280;46498;49.968;7.754;2022-08-27T01:08:55;97001.00;;;18.15;95.17
28606;BME280;46498;49.968;7.754;2022-08-27T01:13:56;97007.00;;;18.22;94.66
28606;BME280;46498;49.968;7.754;2022-08-27T01:19:03;97000.00;;;18.12;95.36
28606;BME280;46498;49.968;7.754;2022-08-27T01:24:41;96985.00;;;18.24;94.60
28606;BME280;46498;49.968;7.754;2022-08-27T01:29:46;96986.00;;;18.09;95.69
28606;BME280;46498;49.968;7.754;2022-08-27T01:34:48;96982.00;;;18.13;95.47
28606;BME280;46498;49.968;7.754;2022-08-27T01:39:49;96982.00;;;18.02;96.42
28606;BME280;46498;49.968;7.754;2022-08-27T01:44:56;96984.00;;;17.98;97.04
28606;BME280;46498;49.968;7.754;2022-08-27T01:49:59;96988.00;;;17.97;96.85
28606;BME280;46498;49.968;7.754;2022-08-27T01:55:01;96985.00;;;17.98;96.55
28606;BME280;46498;49.968;7.754;2022-08-27T02:00:07;96980.00;;;17.92;96.97
28606;BME280;46498;49.968;7.754;2022-08-27T02:05:12;96979.00;;;17.91;97.05
28606;BME280;46498;49.968;7.754;2022-08-27T02:10:21;96981.00;;;17.96;96.37
28606;BME280;46498;49.968;7.754;2022-08-27T02:15:24;96973.00;;;17.96;96.38
28606;BME280;46498;49.968;7.754;2022-08-27T02:20:25;96978.00;;;17.94;96.62
28606;BME280;46498;49.968;7.754;2022-08-27T02:25:30;96976.00;;;17.84;97.52
28606;BME280;46498;49.968;7.754;2022-08-27T02:30:32;96963.00;;;17.78;98.12
28606;BME280;46498;49.968;7.754;2022-08-27T02:35:36;96971.00;;;17.68;98.90
28606;BME280;46498;49.968;7.754;2022-08-27T02:40:43;96960.00;;;17.72;98.69
28606;BME280;46498;49.968;7.754;2022-08-27T02:45:44;96960.00;;;17.74;98.44
28606;BME280;46498;49.968;7.754;2022-08-27T02:50:45;96964.00;;;17.78;98.25
28606;BME280;46498;49.968;7.754;2022-08-27T02:55:46;96963.00;;;17.74;98.96
28606;BME280;46498;49.968;7.754;2022-08-27T03:00:47;96969.00;;;17.73;98.99
28606;BME280;46498;49.968;7.754;2022-08-27T03:05:48;96965.00;;;17.80;98.88
28606;BME280;46498;49.968;7.754;2022-08-27T03:10:49;96969.00;;;17.63;100.00
28606;BME280;46498;49.968;7.754;2022-08-27T03:15:52;96965.00;;;17.59;100.00
28606;BME280;46498;49.968;7.754;2022-08-27T03:20:55;96972.00;;;17.62;100.00
28606;BME280;46498;49.968;7.754;2022-08-27T03:25:57;96969.00;;;17.46;100.00
28606;BME280;46498;49.968;7.754;2022-08-27T03:31:02;96971.00;;;17.41;100.00
28606;BME280;46498;49.968;7.754;2022-08-27T03:36:05;96975.00;;;17.48;100.00
28606;BME280;46498;49.968;7.754;2022-08-27T03:41:07;96971.00;;;17.39;100.00
28606;BME280;46498;49.968;7.754;2022-08-27T03:46:08;96971.00;;;17.27;100.00
28606;BME280;46498;49.968;7.754;2022-08-27T03:51:11;96972.00;;;17.23;100.00
28606;BME280;46498;49.968;7.754;2022-08-27T03:56:13;96976.00;;;17.14;100.00
28606;BME280;46498;49.968;7.754;2022-08-27T04:01:14;96977.00;;;17.11;100.00
28606;BME280;46498;49.968;7.754;2022-08-27T04:06:16;96980.00;;;17.17;100.00
28606;BME280;46498;49.968;7.754;2022-08-27T04:11:17;96974.00;;;17.13;100.00
28606;BME280;46498;49.968;7.754;2022-08-27T04:16:18;96969.00;;;16.97;100.00
28606;BME280;46498;49.968;7.754;2022-08-27T04:21:20;96968.00;;;16.95;100.00
28606;BME280;46498;49.968;7.754;2022-08-27T04:26:22;96974.00;;;16.90;100.00
28606;BME280;46498;49.968;7.754;2022-08-27T04:31:24;96979.00;;;16.95;100.00
28606;BME280;46498;49.968;7.754;2022-08-27T04:36:25;96976.00;;;16.90;100.00
28606;BME280;46498;49.968;7.754;2022-08-27T04:41:27;96979.00;;;16.95;100.00
28606;BME280;46498;49.968;7.754;2022-08-27T04:46:31;96990.00;;;16.93;100.00
28606;BME280;46498;49.968;7.754;2022-08-27T04:51:33;96995.00;;;16.84;100.00
28606;BME280;46498;49.968;7.754;2022-08-27T04:56:36;96987.00;;;16.90;100.00
28606;BME280;46498;49.968;7.754;2022-08-27T05:01:41;96994.00;;;16.82;100.00
28606;BME280;46498;49.968;7.754;2022-08-27T05:06:43;96998.00;;;16.83;100.00
28606;BME280;46498;49.968;7.754;2022-08-27T05:11:45;97000.00;;;16.92;100.00
28606;BME280;46498;49.968;7.754;2022-08-27T05:16:47;97006.00;;;16.91;100.00
28606;BME280;46498;49.968;7.754;2022-08-27T05:21:50;97004.00;;;17.02;100.00
28606;BME280;46498;49.968;7.754;2022-08-27T05:26:51;97013.00;;;16.97;100.00
28606;BME280;46498;49.968;7.754;2022-08-27T05:31:52;96995.00;;;16.84;100.00
28606;BME280;46498;49.968;7.754;2022-08-27T05:36:55;97000.00;;;16.87;100.00
28606;BME280;46498;49.968;7.754;2022-08-27T05:41:56;97018.00;;;16.85;100.00
28606;BME280;46498;49.968;7.754;2022-08-27T05:46:57;97009.00;;;16.86;100.00
28606;BME280;46498;49.968;7.754;2022-08-27T05:51:58;97018.00;;;16.70;100.00
28606;BME280;46498;49.968;7.754;2022-08-27T05:56:59;97019.00;;;16.79;100.00
28606;BME280;46498;49.968;7.754;2022-08-27T06:02:01;97008.00;;;16.89;100.00
28606;BME280;46498;49.968;7.754;2022-08-27T06:07:02;97010.00;;;16.85;100.00
28606;BME280;46498;49.968;7.754;2022-08-27T06:12:05;97004.00;;;16.90;100.00
28606;BME280;46498;49.968;7.754;2022-08-27T06:17:06;97011.00;;;16.89;100.00
28606;BME280;46498;49.968;7.754;2022-08-27T06:22:07;97013.00;;;16.97;100.00
28606;BME280;46498;49.968;7.754;2022-08-27T06:27:14;97008.00;;;16.97;100.00
28606;BME280;46498;49.968;7.754;2022-08-27T06:32:15;97012.00;;;17.05;100.00
28606;BME280;46498;49.968;7.754;2022-08-27T06:37:16;97005.00;;;17.08;100.00
28606;BME280;46498;49.968;7.754;2022-08-27T06:42:17;97005.00;;;17.10;100.00
28606;BME280;46498;49.968;7.754;2022-08-27T06:47:21;96991.00;;;17.15;100.00
28606;BME280;46498;49.968;7.754;2022-08-27T06:52:22;96988.00;;;17.15;100.00
28606;BME280;46498;49.968;7.754;2022-08-27T06:57:23;96989.00;;;17.21;100.00
28606;BME280;46498;49.968;7.754;2022-08-27T07:02:24;96994.00;;;17.44;100.00
28606;BME280;46498;49.968;7.754;2022-08-27T07:07:25;96990.00;;;17.56;100.00
28606;BME280;46498;49.968;7.754;2022-08-27T07:12:35;96990.00;;;17.68;100.00
28606;BME280;46498;49.968;7.754;2022-08-27T07:17:35;97012.00;;;17.54;100.00
28606;BME280;46498;49.968;7.754;2022-08-27T07:22:39;97016.00;;;17.54;100.00
28606;BME280;46498;49.968;7.754;2022-08-27T07:27:40;97022.00;;;17.44;100.00
28606;BME280;46498;49.968;7.754;2022-08-27T07:32:44;97023.00;;;17.52;100.00
28606;BME280;46498;49.968;7.754;2022-08-27T07:37:45;97027.00;;;17.40;100.00
28606;BME280;46498;49.968;7.754;2022-08-27T07:42:46;97044.00;;;17.32;100.00
28606;BME280;46498;49.968;7.754;2022-08-27T07:48:06;97048.00;;;17.16;100.00
28606;BME280;46498;49.968;7.754;2022-08-27T07:53:07;97050.00;;;17.05;100.00
28606;BME280;46498;49.968;7.754;2022-08-27T07:58:08;97061.00;;;17.12;100.00
28606;BME280;46498;49.968;7.754;2022-08-27T08:03:12;97057.00;;;17.14;100.00
28606;BME280;46498;49.968;7.754;2022-08-27T08:08:14;97069.00;;;17.32;100.00
28606;BME280;46498;49.968;7.754;2022-08-27T08:13:16;97060.00;;;17.26;100.00
28606;BME280;46498;49.968;7.754;2022-08-27T08:18:18;97077.00;;;17.26;100.00
28606;BME280;46498;49.968;7.754;2022-08-27T08:23:20;97072.00;;;17.34;100.00
28606;BME280;46498;49.968;7.754;2022-08-27T08:28:21;97088.00;;;17.44;100.00
28606;BME280;46498;49.968;7.754;2022-08-27T08:33:22;97085.00;;;17.51;100.00
28606;BME280;46498;49.968;7.754;2022-08-27T08:38:24;97095.00;;;17.49;100.00
28606;BME280;46498;49.968;7.754;2022-08-27T08:43:35;97092.00;;;17.48;100.00
28606;BME280;46498;49.968;7.754;2022-08-27T08:48:39;97093.00;;;17.65;100.00
28606;BME280;46498;49.968;7.754;2022-08-27T08:53:49;97087.00;;;17.68;100.00
28606;BME280;46498;49.968;7.754;2022-08-27T08:59:01;97092.00;;;17.89;100.00
28606;BME280;46498;49.968;7.754;2022-08-27T09:04:04;97094.00;;;17.99;100.00
28606;BME280;46498;49.968;7.754;2022-08-27T09:09:50;97094.00;;;17.94;100.00
28606;BME280;46498;49.968;7.754;2022-08-27T09:15:01;97103.00;;;17.98;100.00
28606;BME280;46498;49.968;7.754;2022-08-27T09:20:06;97107.00;;;17.81;100.00
28606;BME280;46498;49.968;7.754;2022-08-27T09:25:27;97115.00;;;17.97;100.00
28606;BME280;46498;49.968;7.754;2022-08-27T09:30:41;97107.00;;;17.99;100.00
28606;BME280;46498;49.968;7.754;2022-08-27T09:35:45;97115.00;;;18.06;100.00
28606;BME280;46498;49.968;7.754;2022-08-27T09:40:49;97126.00;;;18.11;100.00
28606;BME280;46498;49.968;7.754;2022-08-27T09:45:54;97122.00;;;18.23;100.00
28606;BME280;46498;49.968;7.754;2022-08-27T09:50:59;97130.00;;;18.28;100.00
28606;BME280;46498;49.968;7.754;2022-08-27T09:56:07;97123.00;;;18.49;99.80
28606;BME280;46498;49.968;7.754;2022-08-27T10:01:21;97125.00;;;18.75;99.09
28606;BME280;46498;49.968;7.754;2022-08-27T10:06:27;97119.00;;;19.07;96.33
28606;BME280;46498;49.968;7.754;2022-08-27T10:11:33;97121.00;;;19.42;93.93
28606;BME280;46498;49.968;7.754;2022-08-27T10:17:03;97119.00;;;19.34;92.79
28606;BME280;46498;49.968;7.754;2022-08-27T10:22:29;97118.00;;;19.51;90.30
28606;BME280;46498;49.968;7.754;2022-08-27T10:29:16;97114.00;;;19.59;91.83
28606;BME280;46498;49.968;7.754;2022-08-27T10:34:44;97119.00;;;19.61;90.52
28606;BME280;46498;49.968;7.754;2022-08-27T10:40:19;97117.00;;;19.63;89.31
28606;BME280;46498;49.968;7.754;2022-08-27T10:45:44;97127.00;;;19.64;90.48
28606;BME280;46498;49.968;7.754;2022-08-27T10:52:03;97122.00;;;19.73;90.24
28606;BME280;46498;49.968;7.754;2022-08-27T10:57:45;97118.00;;;19.96;88.51
28606;BME280;46498;49.968;7.754;2022-08-27T11:03:06;97115.00;;;20.23;87.67
28606;BME280;46498;49.968;7.754;2022-08-27T11:08:38;97113.00;;;20.39;84.43
28606;BME280;46498;49.968;7.754;2022-08-27T11:13:48;97112.00;;;21.03;81.83
28606;BME280;46498;49.968;7.754;2022-08-27T11:18:56;97120.00;;;21.35;77.73
28606;BME280;46498;49.968;7.754;2022-08-27T11:24:04;97117.00;;;21.62;76.95
28606;BME280;46498;49.968;7.754;2022-08-27T11:29:23;97113.00;;;21.58;76.02
28606;BME280;46498;49.968;7.754;2022-08-27T11:34:42;97106.00;;;21.64;76.18
28606;BME280;46498;49.968;7.754;2022-08-27T11:41:29;97104.00;;;22.05;75.25
28606;BME280;46498;49.968;7.754;2022-08-27T11:46:47;97102.00;;;22.19;73.17
28606;BME280;46498;49.968;7.754;2022-08-27T11:52:01;97119.00;;;22.09;72.72
28606;BME280;46498;49.968;7.754;2022-08-27T11:57:13;97122.00;;;21.75;74.14
28606;BME280;46498;49.968;7.754;2022-08-27T12:02:24;97116.00;;;21.17;76.33
28606;BME280;46498;49.968;7.754;2022-08-27T12:07:28;97114.00;;;20.83;78.87
28606;BME280;46498;49.968;7.754;2022-08-27T12:15:13;97114.00;;;20.90;79.15
28606;BME280;46498;49.968;7.754;2022-08-27T12:20:33;97108.00;;;21.65;75.22
28606;BME280;46498;49.968;7.754;2022-08-27T12:25:41;97109.00;;;21.74;73.40
28606;BME280;46498;49.968;7.754;2022-08-27T12:30:49;97101.00;;;21.69;73.20
28606;BME280;46498;49.968;7.754;2022-08-27T12:35:55;97106.00;;;22.01;71.98
28606;BME280;46498;49.968;7.754;2022-08-27T12:40:58;97105.00;;;22.00;73.77
28606;BME280;46498;49.968;7.754;2022-08-27T12:46:11;97087.00;;;22.05;72.18
28606;BME280;46498;49.968;7.754;2022-08-27T12:51:24;97092.00;;;21.82;73.19
28606;BME280;46498;49.968;7.754;2022-08-27T12:58:10;97087.00;;;21.45;75.12
28606;BME280;46498;49.968;7.754;2022-08-27T13:03:33;97080.00;;;22.48;70.45
28606;BME280;46498;49.968;7.754;2022-08-27T13:08:35;97080.00;;;22.32;69.92
28606;BME280;46498;49.968;7.754;2022-08-27T13:13:36;97077.00;;;22.36;69.77
28606;BME280;46498;49.968;7.754;2022-08-27T13:18:37;97085.00;;;22.19;70.18
28606;BME280;46498;49.968;7.754;2022-08-27T13:23:44;97089.00;;;22.04;70.85
28606;BME280;46498;49.968;7.754;2022-08-27T13:28:47;97094.00;;;21.89;71.74
28606;BME280;46498;49.968;7.754;2022-08-27T13:33:49;97088.00;;;21.98;71.73
28606;BME280;46498;49.968;7.754;2022-08-27T13:38:50;97100.00;;;21.86;70.71
28606;BME280;46498;49.968;7.754;2022-08-27T13:43:52;97094.00;;;22.18;68.86
28606;BME280;46498;49.968;7.754;2022-08-27T13:48:59;97090.00;;;22.10;70.37
28606;BME280;46498;49.968;7.754;2022-08-27T13:54:07;97086.00;;;22.60;68.25
28606;BME280;46498;49.968;7.754;2022-08-27T13:59:25;97083.00;;;22.29;68.72
28606;BME280;46498;49.968;7.754;2022-08-27T14:05:01;97081.00;;;22.62;67.52
28606;BME280;46498;49.968;7.754;2022-08-27T14:15:57;97075.00;;;23.37;63.92
28606;BME280;46498;49.968;7.754;2022-08-27T14:21:00;97072.00;;;22.94;65.22
28606;BME280;46498;49.968;7.754;2022-08-27T14:26:02;97074.00;;;23.10;65.21
28606;BME280;46498;49.968;7.754;2022-08-27T14:31:03;97076.00;;;22.53;66.29
28606;BME280;46498;49.968;7.754;2022-08-27T14:36:04;97072.00;;;22.04;68.58
28606;BME280;46498;49.968;7.754;2022-08-27T14:41:06;97066.00;;;22.00;69.69
28606;BME280;46498;49.968;7.754;2022-08-27T14:46:16;97056.00;;;22.22;68.97
28606;BME280;46498;49.968;7.754;2022-08-27T14:51:24;97065.00;;;22.37;67.75
28606;BME280;46498;49.968;7.754;2022-08-27T14:56:26;97066.00;;;22.26;67.16
28606;BME280;46498;49.968;7.754;2022-08-27T15:01:27;97077.00;;;21.58;69.93
28606;BME280;46498;49.968;7.754;2022-08-27T15:06:29;97077.00;;;21.49;71.32
28606;BME280;46498;49.968;7.754;2022-08-27T15:11:31;97089.00;;;21.80;69.78
28606;BME280;46498;49.968;7.754;2022-08-27T15:16:36;97085.00;;;21.80;70.25
28606;BME280;46498;49.968;7.754;2022-08-27T15:21:39;97089.00;;;21.79;70.86
28606;BME280;46498;49.968;7.754;2022-08-27T15:26:40;97076.00;;;21.92;68.98
28606;BME280;46498;49.968;7.754;2022-08-27T15:31:42;97077.00;;;21.74;70.34
28606;BME280;46498;49.968;7.754;2022-08-27T15:36:43;97081.00;;;21.93;69.12
28606;BME280;46498;49.968;7.754;2022-08-27T15:41:44;97081.00;;;21.95;68.79
28606;BME280;46498;49.968;7.754;2022-08-27T15:47:06;97084.00;;;21.93;68.80
28606;BME280;46498;49.968;7.754;2022-08-27T15:52:09;97080.00;;;21.49;69.97
28606;BME280;46498;49.968;7.754;2022-08-27T15:57:18;97083.00;;;21.51;70.26
28606;BME280;46498;49.968;7.754;2022-08-27T16:02:21;97079.00;;;21.49;70.64
28606;BME280;46498;49.968;7.754;2022-08-27T16:07:23;97080.00;;;21.28;71.62
28606;BME280;46498;49.968;7.754;2022-08-27T16:12:24;97078.00;;;21.33;70.38
28606;BME280;46498;49.968;7.754;2022-08-27T16:17:28;97074.00;;;21.33;70.89
28606;BME280;46498;49.968;7.754;2022-08-27T16:22:29;97074.00;;;21.33;70.93
28606;BME280;46498;49.968;7.754;2022-08-27T16:27:30;97075.00;;;21.12;71.62
28606;BME280;46498;49.968;7.754;2022-08-27T16:32:31;97079.00;;;21.00;71.66
28606;BME280;46498;49.968;7.754;2022-08-27T16:37:32;97078.00;;;20.87;72.06
28606;BME280;46498;49.968;7.754;2022-08-27T16:42:34;97071.00;;;20.70;73.22
28606;BME280;46498;49.968;7.754;2022-08-27T16:47:35;97073.00;;;20.73;72.78
28606;BME280;46498;49.968;7.754;2022-08-27T16:55:33;97070.00;;;20.57;73.60
28606;BME280;46498;49.968;7.754;2022-08-27T17:00:36;97056.00;;;20.43;74.09
28606;BME280;46498;49.968;7.754;2022-08-27T17:05:38;97072.00;;;20.34;74.48
28606;BME280;46498;49.968;7.754;2022-08-27T17:10:41;97067.00;;;20.09;75.75
28606;BME280;46498;49.968;7.754;2022-08-27T17:15:46;97068.00;;;19.99;76.44
28606;BME280;46498;49.968;7.754;2022-08-27T17:20:55;97073.00;;;19.89;77.11
28606;BME280;46498;49.968;7.754;2022-08-27T17:25:56;97077.00;;;19.76;77.18
28606;BME280;46498;49.968;7.754;2022-08-27T17:30:59;97079.00;;;19.52;78.36
28606;BME280;46498;49.968;7.754;2022-08-27T17:36:03;97074.00;;;19.42;78.64
28606;BME280;46498;49.968;7.754;2022-08-27T17:41:30;97073.00;;;19.20;79.51
28606;BME280;46498;49.968;7.754;2022-08-27T17:46:34;97071.00;;;18.94;80.46
28606;BME280;46498;49.968;7.754;2022-08-27T17:51:36;97074.00;;;18.58;82.37
28606;BME280;46498;49.968;7.754;2022-08-27T17:56:37;97082.00;;;18.49;83.24
28606;BME280;46498;49.968;7.754;2022-08-27T18:01:39;97075.00;;;18.32;84.09
28606;BME280;46498;49.968;7.754;2022-08-27T18:06:41;97070.00;;;18.22;84.51
28606;BME280;46498;49.968;7.754;2022-08-27T18:11:43;97072.00;;;18.05;85.46
28606;BME280;46498;49.968;7.754;2022-08-27T18:16:44;97090.00;;;17.85;86.25
28606;BME280;46498;49.968;7.754;2022-08-27T18:21:45;97088.00;;;17.73;87.11
28606;BME280;46498;49.968;7.754;2022-08-27T18:26:47;97095.00;;;17.61;87.95
28606;BME280;46498;49.968;7.754;2022-08-27T18:31:49;97104.00;;;17.53;88.46
28606;BME280;46498;49.968;7.754;2022-08-27T18:36:50;97102.00;;;17.35;89.09
28606;BME280;46498;49.968;7.754;2022-08-27T18:41:52;97101.00;;;17.38;89.28
28606;BME280;46498;49.968;7.754;2022-08-27T18:46:53;97101.00;;;17.29;89.81
28606;BME280;46498;49.968;7.754;2022-08-27T18:51:54;97107.00;;;17.21;89.90
28606;BME280;46498;49.968;7.754;2022-08-27T18:56:55;97109.00;;;17.08;90.70
28606;BME280;46498;49.968;7.754;2022-08-27T19:01:56;97107.00;;;16.97;91.64
28606;BME280;46498;49.968;7.754;2022-08-27T19:06:58;97112.00;;;16.94;91.82
28606;BME280;46498;49.968;7.754;2022-08-27T19:11:58;97121.00;;;16.84;92.60
28606;BME280;46498;49.968;7.754;2022-08-27T19:17:01;97121.00;;;16.78;92.71
28606;BME280;46498;49.968;7.754;2022-08-27T19:22:02;97120.00;;;16.77;92.68
28606;BME280;46498;49.968;7.754;2022-08-27T19:27:07;97130.00;;;16.59;93.77
28606;BME280;46498;49.968;7.754;2022-08-27T19:32:09;97137.00;;;16.70;92.81
28606;BME280;46498;49.968;7.754;2022-08-27T19:37:20;97138.00;;;16.48;94.22
28606;BME280;46498;49.968;7.754;2022-08-27T19:42:21;97140.00;;;16.46;94.07
28606;BME280;46498;49.968;7.754;2022-08-27T19:47:22;97148.00;;;16.51;94.06
28606;BME280;46498;49.968;7.754;2022-08-27T19:52:25;97148.00;;;16.44;94.26
28606;BME280;46498;49.968;7.754;2022-08-27T19:57:26;97157.00;;;16.39;94.25
28606;BME280;46498;49.968;7.754;2022-08-27T20:02:27;97142.00;;;16.38;94.33
28606;BME280;46498;49.968;7.754;2022-08-27T20:07:28;97145.00;;;16.30;94.82
28606;BME280;46498;49.968;7.754;2022-08-27T20:12:29;97149.00;;;16.34;94.45
28606;BME280;46498;49.968;7.754;2022-08-27T20:17:31;97156.00;;;16.17;95.53
28606;BME280;46498;49.968;7.754;2022-08-27T20:22:33;97149.00;;;16.31;94.50
28606;BME280;46498;49.968;7.754;2022-08-27T20:27:34;97160.00;;;16.19;95.08
28606;BME280;46498;49.968;7.754;2022-08-27T20:32:35;97161.00;;;16.26;94.57
28606;BME280;46498;49.968;7.754;2022-08-27T20:37:37;97164.00;;;16.20;94.96
28606;BME280;46498;49.968;7.754;2022-08-27T20:42:42;97167.00;;;16.24;94.76
28606;BME280;46498;49.968;7.754;2022-08-27T20:47:46;97179.00;;;16.25;94.60
28606;BME280;46498;49.968;7.754;2022-08-27T20:52:48;97179.00;;;16.25;94.40
28606;BME280;46498;49.968;7.754;2022-08-27T20:57:49;97181.00;;;16.39;93.13
28606;BME280;46498;49.968;7.754;2022-08-27T21:03:11;97179.00;;;16.37;93.14
28606;BME280;46498;49.968;7.754;2022-08-27T21:08:13;97188.00;;;16.45;92.43
28606;BME280;46498;49.968;7.754;2022-08-27T21:13:15;97193.00;;;16.43;92.31
28606;BME280;46498;49.968;7.754;2022-08-27T21:18:17;97191.00;;;16.47;91.85
28606;BME280;46498;49.968;7.754;2022-08-27T21:23:21;97193.00;;;16.44;92.11
28606;BME280;46498;49.968;7.754;2022-08-27T21:28:21;97202.00;;;16.54;91.45
28606;BME280;46498;49.968;7.754;2022-08-27T21:33:23;97207.00;;;16.55;91.41
28606;BME280;46498;49.968;7.754;2022-08-27T21:38:24;97204.00;;;16.64;90.98
28606;BME280;46498;49.968;7.754;2022-08-27T21:43:24;97197.00;;;16.65;90.80
28606;BME280;46498;49.968;7.754;2022-08-27T21:48:25;97198.00;;;16.64;90.94
28606;BME280;46498;49.968;7.754;2022-08-27T21:53:26;97193.00;;;16.68;90.54
28606;BME280;46498;49.968;7.754;2022-08-27T21:58:29;97206.00;;;16.72;89.68
28606;BME280;46498;49.968;7.754;2022-08-27T22:03:32;97199.00;;;16.82;88.81
28606;BME280;46498;49.968;7.754;2022-08-27T22:08:33;97195.00;;;16.76;89.53
28606;BME280;46498;49.968;7.754;2022-08-27T22:13:35;97197.00;;;16.69;89.54
28606;BME280;46498;49.968;7.754;2022-08-27T22:18:36;97203.00;;;16.60;90.38
28606;BME280;46498;49.968;7.754;2022-08-27T22:23:39;97199.00;;;16.52;91.13
28606;BME280;46498;49.968;7.754;2022-08-27T22:28:45;97197.00;;;16.61;90.07
28606;BME280;46498;49.968;7.754;2022-08-27T22:33:46;97193.00;;;16.69;89.50
28606;BME280;46498;49.968;7.754;2022-08-27T22:38:47;97193.00;;;16.62;90.23
28606;BME280;46498;49.968;7.754;2022-08-27T22:43:50;97195.00;;;16.76;89.02
28606;BME280;46498;49.968;7.754;2022-08-27T22:48:57;97197.00;;;16.85;88.89
28606;BME280;46498;49.968;7.754;2022-08-27T22:53:58;97187.00;;;16.73;89.68
28606;BME280;46498;49.968;7.754;2022-08-27T22:58:59;97198.00;;;16.76;89.93
28606;BME280;46498;49.968;7.754;2022-08-27T23:04:00;97201.00;;;16.85;88.93
28606;BME280;46498;49.968;7.754;2022-08-27T23:09:02;97194.00;;;16.91;87.76
28606;BME280;46498;49.968;7.754;2022-08-27T23:14:03;97190.00;;;16.84;88.08
28606;BME280;46498;49.968;7.754;2022-08-27T23:19:03;97183.00;;;16.73;89.08
28606;BME280;46498;49.968;7.754;2022-08-27T23:24:04;97189.00;;;16.67;89.89
28606;BME280;46498;49.968;7.754;2022-08-27T23:29:05;97183.00;;;16.73;89.64
28606;BME280;46498;49.968;7.754;2022-08-27T23:34:07;97180.00;;;16.59;90.21
28606;BME280;46498;49.968;7.754;2022-08-27T23:39:08;97184.00;;;16.60;90.08
28606;BME280;46498;49.968;7.754;2022-08-27T23:44:10;97183.00;;;16.50;90.34
28606;BME280;46498;49.968;7.754;2022-08-27T23:49:11;97194.00;;;16.54;90.18
28606;BME280;46498;49.968;7.754;2022-08-27T23:54:12;97192.00;;;16.44;90.70
28606;BME280;46498;49.968;7.754;2022-08-27T23:59:13;97201.00;;;16.27;91.84
